createdAt,value
2023-04-12T00:00:00.931Z,9.2
2023-04-12T00:01:01.536Z,9.2
2023-04-12T00:02:01.173Z,9.1
2023-04-12T00:03:00.773Z,9.2
2023-04-12T00:04:01.552Z,9.2
2023-04-12T00:05:01.579Z,9.2
2023-04-12T00:06:01.298Z,9.2
2023-04-12T00:07:00.900Z,9.2
2023-04-12T00:08:01.474Z,9.2
2023-04-12T00:09:01.088Z,9.2
2023-04-12T00:10:01.635Z,9.2
2023-04-12T00:11:01.237Z,9.3
2023-04-12T00:12:00.844Z,9.2
2023-04-12T00:13:01.423Z,9.3
2023-04-12T00:14:01.090Z,9.2
2023-04-12T00:15:01.610Z,9.2
2023-04-12T00:16:01.249Z,9.2
2023-04-12T00:17:00.782Z,9.3
2023-04-12T00:18:01.371Z,9.3
2023-04-12T00:19:01.055Z,9.3
2023-04-12T00:20:01.590Z,9.2
2023-04-12T00:21:01.181Z,9.2
2023-04-12T00:22:00.785Z,9.3
2023-04-12T00:23:01.347Z,9.3
2023-04-12T00:24:00.935Z,9.3
2023-04-12T00:25:01.527Z,9.3
2023-04-12T00:26:01.143Z,9.3
2023-04-12T00:27:00.730Z,9.4
2023-04-12T00:28:01.321Z,9.4
2023-04-12T00:29:00.925Z,9.5
2023-04-12T00:30:01.525Z,9.5
2023-04-12T00:31:01.159Z,9.5
2023-04-12T00:32:00.717Z,9.5
2023-04-12T00:33:01.329Z,9.5
2023-04-12T00:34:00.933Z,9.4
2023-04-12T00:35:01.519Z,9.4
2023-04-12T00:36:01.181Z,9.4
2023-04-12T00:37:00.723Z,9.4
2023-04-12T00:38:01.365Z,9.5
2023-04-12T00:39:00.965Z,9.4
2023-04-12T00:40:01.527Z,9.4
2023-04-12T00:41:01.141Z,9.4
2023-04-12T00:42:00.690Z,9.4
2023-04-12T00:43:01.275Z,9.4
2023-04-12T00:44:00.863Z,9.4
2023-04-12T00:45:01.457Z,9.4
2023-04-12T00:46:01.078Z,9.4
2023-04-12T00:47:01.674Z,9.4
2023-04-12T00:48:01.306Z,9.5
2023-04-12T00:49:00.848Z,9.5
2023-04-12T00:50:01.423Z,9.5
2023-04-12T00:51:01.017Z,9.4
2023-04-12T00:52:01.614Z,9.5
2023-04-12T00:53:01.212Z,9.5
2023-04-12T00:54:00.816Z,9.4
2023-04-12T00:55:01.368Z,9.4
2023-04-12T00:56:00.968Z,9.4
2023-04-12T00:57:01.576Z,9.4
2023-04-12T00:58:01.167Z,9.4
2023-04-12T00:59:00.748Z,9.4
2023-04-12T01:00:01.332Z,9.4
2023-04-12T01:01:00.954Z,9.3
2023-04-12T01:02:01.733Z,9.4
2023-04-12T01:03:01.406Z,9.4
2023-04-12T01:04:00.860Z,9.4
2023-04-12T01:05:01.319Z,9.4
2023-04-12T01:06:00.921Z,9.4
2023-04-12T01:07:01.488Z,9.5
2023-04-12T01:08:01.125Z,9.5
2023-04-12T01:09:00.695Z,9.5
2023-04-12T01:10:01.308Z,9.4
2023-04-12T01:11:00.903Z,9.5
2023-04-12T01:12:01.479Z,9.4
2023-04-12T01:13:01.073Z,9.4
2023-04-12T01:14:01.700Z,9.4
2023-04-12T01:15:01.357Z,9.5
2023-04-12T01:16:00.930Z,9.4
2023-04-12T01:17:01.454Z,9.4
2023-04-12T01:18:01.057Z,9.4
2023-04-12T01:19:01.651Z,9.5
2023-04-12T01:20:01.268Z,9.5
2023-04-12T01:21:00.868Z,9.4
2023-04-12T01:22:01.448Z,9.4
2023-04-12T01:23:01.044Z,9.4
2023-04-12T01:24:01.638Z,9.4
2023-04-12T01:25:01.232Z,9.5
2023-04-12T01:26:00.862Z,9.4
2023-04-12T01:27:01.416Z,9.3
2023-04-12T01:28:01.038Z,9.4
2023-04-12T01:29:01.633Z,9.3
2023-04-12T01:30:01.244Z,9.3
2023-04-12T01:31:00.817Z,9.3
2023-04-12T01:32:01.580Z,9.3
2023-04-12T01:33:01.128Z,9.3
2023-04-12T01:34:01.638Z,9.3
2023-04-12T01:35:01.241Z,9.3
2023-04-12T01:36:00.897Z,9.3
2023-04-12T01:37:01.435Z,9.3
2023-04-12T01:38:01.068Z,9.3
2023-04-12T01:39:01.650Z,9.2
2023-04-12T01:40:01.245Z,9.2
2023-04-12T01:41:00.834Z,9.2
2023-04-12T01:42:01.469Z,9.2
2023-04-12T01:43:01.091Z,9.2
2023-04-12T01:44:01.655Z,9.1
2023-04-12T01:45:01.247Z,9.1
2023-04-12T01:46:00.851Z,9.1
2023-04-12T01:47:01.425Z,9.1
2023-04-12T01:48:01.086Z,9.1
2023-04-12T01:49:01.646Z,9.1
2023-04-12T01:50:01.271Z,9.1
2023-04-12T01:51:00.848Z,9.1
2023-04-12T01:52:01.431Z,9.1
2023-04-12T01:53:01.047Z,9
2023-04-12T01:54:01.600Z,9
2023-04-12T01:55:01.195Z,9
2023-04-12T01:56:00.781Z,9
2023-04-12T01:57:01.338Z,9
2023-04-12T01:58:00.972Z,9
2023-04-12T01:59:01.496Z,9
2023-04-12T02:00:01.090Z,8.9
2023-04-12T02:01:01.699Z,8.9
2023-04-12T02:02:01.360Z,9
2023-04-12T02:03:01.004Z,8.9
2023-04-12T02:04:01.834Z,9
2023-04-12T02:05:00.748Z,8.9
2023-04-12T02:06:01.372Z,8.9
2023-04-12T02:07:00.969Z,8.9
2023-04-12T02:08:01.546Z,9
2023-04-12T02:09:01.151Z,8.9
2023-04-12T02:10:00.760Z,8.9
2023-04-12T02:11:01.328Z,8.9
2023-04-12T02:12:00.915Z,8.8
2023-04-12T02:13:01.511Z,8.8
2023-04-12T02:14:01.139Z,8.8
2023-04-12T02:15:00.746Z,8.8
2023-04-12T02:16:01.289Z,8.8
2023-04-12T02:17:00.924Z,8.8
2023-04-12T02:18:01.497Z,8.8
2023-04-12T02:19:01.108Z,8.8
2023-04-12T02:20:00.699Z,8.8
2023-04-12T02:21:01.302Z,8.7
2023-04-12T02:22:00.905Z,8.8
2023-04-12T02:23:01.532Z,8.7
2023-04-12T02:24:01.133Z,8.7
2023-04-12T02:25:00.696Z,8.7
2023-04-12T02:26:01.287Z,8.8
2023-04-12T02:27:00.905Z,8.7
2023-04-12T02:28:01.461Z,8.7
2023-04-12T02:29:01.048Z,8.7
2023-04-12T02:30:01.652Z,8.7
2023-04-12T02:31:01.431Z,8.7
2023-04-12T02:32:00.868Z,8.7
2023-04-12T02:33:01.444Z,8.7
2023-04-12T02:34:01.067Z,8.7
2023-04-12T02:35:01.720Z,8.7
2023-04-12T02:36:01.347Z,8.6
2023-04-12T02:37:00.921Z,8.7
2023-04-12T02:38:01.490Z,8.6
2023-04-12T02:39:01.077Z,8.6
2023-04-12T02:40:01.666Z,8.6
2023-04-12T02:41:01.849Z,8.6
2023-04-12T02:42:01.434Z,8.6
2023-04-12T02:43:01.046Z,8.6
2023-04-12T02:44:01.670Z,8.6
2023-04-12T02:45:01.307Z,8.6
2023-04-12T02:46:00.947Z,8.5
2023-04-12T02:47:01.504Z,8.6
2023-04-12T02:48:01.219Z,8.6
2023-04-12T02:49:00.716Z,8.6
2023-04-12T02:50:01.306Z,8.6
2023-04-12T02:51:00.930Z,8.5
2023-04-12T02:52:01.472Z,8.5
2023-04-12T02:53:01.070Z,8.5
2023-04-12T02:54:01.634Z,8.5
2023-04-12T02:55:01.243Z,8.5
2023-04-12T02:56:00.832Z,8.5
2023-04-12T02:57:01.409Z,8.5
2023-04-12T02:58:01.026Z,8.5
2023-04-12T02:59:01.574Z,8.5
2023-04-12T03:00:01.197Z,8.5
2023-04-12T03:01:00.786Z,8.5
2023-04-12T03:02:01.460Z,8.5
2023-04-12T03:03:01.060Z,8.5
2023-04-12T03:04:01.818Z,8.5
2023-04-12T03:05:01.244Z,8.5
2023-04-12T03:06:00.800Z,8.5
2023-04-12T03:07:01.372Z,8.5
2023-04-12T03:08:00.995Z,8.5
2023-04-12T03:09:01.590Z,8.5
2023-04-12T03:10:01.238Z,8.5
2023-04-12T03:11:00.794Z,8.5
2023-04-12T03:12:01.383Z,8.5
2023-04-12T03:13:00.972Z,8.4
2023-04-12T03:14:01.552Z,8.4
2023-04-12T03:15:01.173Z,8.5
2023-04-12T03:16:00.820Z,8.4
2023-04-12T03:17:01.306Z,8.4
2023-04-12T03:18:00.958Z,8.4
2023-04-12T03:19:01.486Z,8.4
2023-04-12T03:20:01.104Z,8.4
2023-04-12T03:21:01.678Z,8.4
2023-04-12T03:22:01.306Z,8.3
2023-04-12T03:23:00.888Z,8.4
2023-04-12T03:24:01.486Z,8.3
2023-04-12T03:25:01.081Z,8.3
2023-04-12T03:26:01.670Z,8.4
2023-04-12T03:27:01.259Z,8.4
2023-04-12T03:28:00.849Z,8.4
2023-04-12T03:29:01.437Z,8.4
2023-04-12T03:30:01.031Z,8.4
2023-04-12T03:31:01.643Z,8.4
2023-04-12T03:32:01.252Z,8.4
2023-04-12T03:33:00.880Z,8.4
2023-04-12T03:34:01.450Z,8.3
2023-04-12T03:35:01.047Z,8.3
2023-04-12T03:36:01.693Z,8.3
2023-04-12T03:37:01.425Z,8.3
2023-04-12T03:38:00.853Z,8.3
2023-04-12T03:39:01.441Z,8.3
2023-04-12T03:40:01.030Z,8.3
2023-04-12T03:41:01.649Z,8.3
2023-04-12T03:42:01.255Z,8.3
2023-04-12T03:43:01.956Z,8.3
2023-04-12T03:44:01.679Z,8.3
2023-04-12T03:45:01.057Z,8.3
2023-04-12T03:46:01.673Z,8.3
2023-04-12T03:47:01.349Z,8.3
2023-04-12T03:48:00.893Z,8.3
2023-04-12T03:49:01.428Z,8.3
2023-04-12T03:50:10.748Z,8.3
2023-04-12T03:51:01.563Z,8.3
2023-04-12T03:52:01.173Z,8.3
2023-04-12T03:53:00.760Z,8.3
2023-04-12T03:54:01.325Z,8.3
2023-04-12T03:55:00.921Z,8.3
2023-04-12T03:56:01.508Z,8.4
2023-04-12T03:57:01.116Z,8.3
2023-04-12T03:58:00.721Z,8.3
2023-04-12T03:59:01.313Z,8.4
2023-04-12T04:00:00.903Z,8.3
2023-04-12T04:01:01.481Z,8.3
2023-04-12T04:02:01.086Z,8.3
2023-04-12T04:03:01.714Z,8.4
2023-04-12T04:04:01.830Z,8.3
2023-04-12T04:05:00.843Z,8.3
2023-04-12T04:06:01.526Z,8.4
2023-04-12T04:07:01.122Z,8.4
2023-04-12T04:08:00.709Z,8.3
2023-04-12T04:09:01.285Z,8.4
2023-04-12T04:10:00.881Z,8.4
2023-04-12T04:11:01.451Z,8.4
2023-04-12T04:12:01.096Z,8.4
2023-04-12T04:13:01.673Z,8.4
2023-04-12T04:14:01.314Z,8.4
2023-04-12T04:15:00.906Z,8.4
2023-04-12T04:16:01.504Z,8.4
2023-04-12T04:17:01.155Z,8.4
2023-04-12T04:18:01.700Z,8.4
2023-04-12T04:19:01.354Z,8.4
2023-04-12T04:20:00.912Z,8.4
2023-04-12T04:21:01.484Z,8.4
2023-04-12T04:22:01.112Z,8.4
2023-04-12T04:23:01.657Z,8.4
2023-04-12T04:24:01.281Z,8.4
2023-04-12T04:25:00.908Z,8.4
2023-04-12T04:26:01.468Z,8.4
2023-04-12T04:27:01.084Z,8.4
2023-04-12T04:28:01.652Z,8.4
2023-04-12T04:29:01.240Z,8.3
2023-04-12T04:30:00.854Z,8.3
2023-04-12T04:31:01.429Z,8.4
2023-04-12T04:32:01.129Z,8.4
2023-04-12T04:33:01.675Z,8.3
2023-04-12T04:34:01.306Z,8.4
2023-04-12T04:35:00.939Z,8.4
2023-04-12T04:36:01.506Z,8.4
2023-04-12T04:37:01.106Z,8.4
2023-04-12T04:38:01.711Z,8.4
2023-04-12T04:39:01.300Z,8.4
2023-04-12T04:40:00.898Z,8.4
2023-04-12T04:41:01.491Z,8.4
2023-04-12T04:42:01.129Z,8.4
2023-04-12T04:43:00.718Z,8.4
2023-04-12T04:44:01.287Z,8.4
2023-04-12T04:45:00.888Z,8.4
2023-04-12T04:46:01.496Z,8.4
2023-04-12T04:47:01.131Z,8.5
2023-04-12T04:48:01.719Z,8.5
2023-04-12T04:49:01.336Z,8.4
2023-04-12T04:50:00.934Z,8.4
2023-04-12T04:51:01.498Z,8.4
2023-04-12T04:52:01.114Z,8.5
2023-04-12T04:53:01.802Z,8.5
2023-04-12T04:54:01.492Z,8.4
2023-04-12T04:55:00.919Z,8.4
2023-04-12T04:56:01.476Z,8.4
2023-04-12T04:57:01.135Z,8.4
2023-04-12T04:58:01.701Z,8.4
2023-04-12T04:59:01.523Z,8.4
2023-04-12T05:00:00.875Z,8.5
2023-04-12T05:01:01.472Z,8.5
2023-04-12T05:02:01.116Z,8.4
2023-04-12T05:03:01.820Z,8.4
2023-04-12T05:04:01.644Z,8.4
2023-04-12T05:05:00.892Z,8.4
2023-04-12T05:06:01.482Z,8.4
2023-04-12T05:07:01.090Z,8.4
2023-04-12T05:08:01.677Z,8.4
2023-04-12T05:09:01.271Z,8.3
2023-04-12T05:10:00.888Z,8.4
2023-04-12T05:11:01.443Z,8.4
2023-04-12T05:12:01.086Z,8.4
2023-04-12T05:13:01.648Z,8.4
2023-04-12T05:14:01.255Z,8.4
2023-04-12T05:16:01.367Z,8.4
2023-04-12T05:17:01.060Z,8.4
2023-04-12T05:18:01.632Z,8.4
2023-04-12T05:19:01.194Z,8.3
2023-04-12T05:20:00.770Z,8.4
2023-04-12T05:21:01.333Z,8.4
2023-04-12T05:22:00.927Z,8.4
2023-04-12T05:23:01.526Z,8.4
2023-04-12T05:24:01.132Z,8.4
2023-04-12T05:25:00.704Z,8.4
2023-04-12T05:26:01.343Z,8.4
2023-04-12T05:27:00.935Z,8.3
2023-04-12T05:28:01.519Z,8.3
2023-04-12T05:29:01.110Z,8.3
2023-04-12T05:30:01.684Z,8.3
2023-04-12T05:31:01.355Z,8.3
2023-04-12T05:32:00.931Z,8.3
2023-04-12T05:33:01.564Z,8.2
2023-04-12T05:34:01.152Z,8.2
2023-04-12T05:35:00.736Z,8.2
2023-04-12T05:36:01.391Z,8.1
2023-04-12T05:37:00.971Z,8.1
2023-04-12T05:38:01.607Z,8.1
2023-04-12T05:39:01.220Z,8.1
2023-04-12T05:40:00.858Z,8.1
2023-04-12T05:41:01.373Z,8
2023-04-12T05:42:01.009Z,8
2023-04-12T05:43:01.583Z,8
2023-04-12T05:44:01.225Z,8
2023-04-12T05:45:00.757Z,8
2023-04-12T05:46:01.367Z,8
2023-04-12T05:47:00.985Z,8.1
2023-04-12T05:48:01.625Z,8
2023-04-12T05:49:01.234Z,8
2023-04-12T05:50:00.802Z,8
2023-04-12T05:51:01.397Z,8
2023-04-12T05:52:00.995Z,8
2023-04-12T05:53:01.587Z,7.9
2023-04-12T05:54:01.211Z,7.9
2023-04-12T05:55:00.783Z,8
2023-04-12T05:56:01.350Z,8
2023-04-12T05:57:00.945Z,7.9
2023-04-12T05:58:01.594Z,7.9
2023-04-12T05:59:01.211Z,7.8
2023-04-12T06:00:00.765Z,7.9
2023-04-12T06:01:01.357Z,7.9
2023-04-12T06:02:00.967Z,7.9
2023-04-12T06:03:01.609Z,8
2023-04-12T06:04:01.373Z,8
2023-04-12T06:05:00.842Z,8
2023-04-12T06:06:01.330Z,8
2023-04-12T06:07:00.927Z,8
2023-04-12T06:08:01.562Z,7.9
2023-04-12T06:09:01.215Z,8
2023-04-12T06:10:00.757Z,8
2023-04-12T06:11:01.343Z,8
2023-04-12T06:12:00.938Z,8
2023-04-12T06:13:01.540Z,8.1
2023-04-12T06:14:01.146Z,8.1
2023-04-12T06:15:00.712Z,8.1
2023-04-12T06:16:01.399Z,8.1
2023-04-12T06:17:00.942Z,8.1
2023-04-12T06:18:01.628Z,8.1
2023-04-12T06:19:01.287Z,8.1
2023-04-12T06:20:00.761Z,8.1
2023-04-12T06:21:01.327Z,8.1
2023-04-12T06:22:00.916Z,8.2
2023-04-12T06:23:01.496Z,8.3
2023-04-12T06:24:01.225Z,8.2
2023-04-12T06:25:00.728Z,8.3
2023-04-12T06:26:01.317Z,8.3
2023-04-12T06:27:00.914Z,8.2
2023-04-12T06:28:01.532Z,8.3
2023-04-12T06:29:01.141Z,8.3
2023-04-12T06:30:00.756Z,8.3
2023-04-12T06:31:01.302Z,8.3
2023-04-12T06:32:00.923Z,8.3
2023-04-12T06:33:01.596Z,8.3
2023-04-12T06:34:01.174Z,8.4
2023-04-12T06:35:00.727Z,8.3
2023-04-12T06:36:01.312Z,8.3
2023-04-12T06:37:00.948Z,8.3
2023-04-12T06:38:01.549Z,8.3
2023-04-12T06:39:01.134Z,8.3
2023-04-12T06:40:00.712Z,8.2
2023-04-12T06:41:01.344Z,8.3
2023-04-12T06:42:00.940Z,8.3
2023-04-12T06:43:01.554Z,8.3
2023-04-12T06:44:01.146Z,8.3
2023-04-12T06:45:00.715Z,8.3
2023-04-12T06:46:01.337Z,8.4
2023-04-12T06:47:01.011Z,8.4
2023-04-12T06:48:01.622Z,8.4
2023-04-12T06:49:01.361Z,8.4
2023-04-12T06:50:00.793Z,8.4
2023-04-12T06:51:01.356Z,8.4
2023-04-12T06:52:00.958Z,8.4
2023-04-12T06:53:01.528Z,8.4
2023-04-12T06:54:01.124Z,8.5
2023-04-12T06:55:00.720Z,8.7
2023-04-12T06:56:01.325Z,8.8
2023-04-12T06:57:00.913Z,8.7
2023-04-12T06:58:01.501Z,8.7
2023-04-12T06:59:01.090Z,8.7
2023-04-12T07:00:01.708Z,8.7
2023-04-12T07:01:01.338Z,8.7
2023-04-12T07:02:00.973Z,8.7
2023-04-12T07:03:01.797Z,8.8
2023-04-12T07:04:01.277Z,8.8
2023-04-12T07:05:00.756Z,8.8
2023-04-12T07:06:07.607Z,8.7
2023-04-12T07:07:00.884Z,8.8
2023-04-12T07:08:01.474Z,8.8
2023-04-12T07:09:01.064Z,8.8
2023-04-12T07:10:01.638Z,8.9
2023-04-12T07:11:08.782Z,8.8
2023-04-12T07:12:00.800Z,8.9
2023-04-12T07:13:01.427Z,9
2023-04-12T07:14:01.025Z,8.9
2023-04-12T07:15:01.609Z,8.8
2023-04-12T07:16:01.250Z,8.8
2023-04-12T07:17:00.809Z,8.8
2023-04-12T07:18:01.479Z,8.8
2023-04-12T07:19:01.109Z,8.7
2023-04-12T07:20:01.606Z,8.7
2023-04-12T07:21:01.218Z,8.7
2023-04-12T07:22:00.801Z,8.6
2023-04-12T07:23:01.404Z,8.6
2023-04-12T07:24:00.997Z,8.7
2023-04-12T07:25:01.585Z,8.6
2023-04-12T07:26:01.195Z,8.7
2023-04-12T07:27:00.754Z,8.8
2023-04-12T07:28:01.351Z,8.8
2023-04-12T07:29:00.940Z,8.9
2023-04-12T07:30:01.546Z,8.9
2023-04-12T07:31:01.142Z,9
2023-04-12T07:32:00.726Z,9
2023-04-12T07:33:08.874Z,9
2023-04-12T07:34:01.014Z,9
2023-04-12T07:35:01.580Z,9.1
2023-04-12T07:36:01.210Z,9.1
2023-04-12T07:37:00.758Z,9.2
2023-04-12T07:38:01.343Z,9.2
2023-04-12T07:39:00.945Z,9.2
2023-04-12T07:40:01.558Z,9.3
2023-04-12T07:41:01.171Z,9.3
2023-04-12T07:42:00.770Z,9.2
2023-04-12T07:43:01.338Z,9.3
2023-04-12T07:44:00.952Z,9.4
2023-04-12T07:45:01.931Z,9.5
2023-04-12T07:46:01.196Z,9.6
2023-04-12T07:47:00.775Z,9.7
2023-04-12T07:48:01.403Z,9.5
2023-04-12T07:49:01.015Z,9.5
2023-04-12T07:50:01.648Z,9.6
2023-04-12T07:51:01.238Z,9.6
2023-04-12T07:52:00.829Z,9.6
2023-04-12T07:53:01.384Z,9.7
2023-04-12T07:54:01.018Z,9.6
2023-04-12T07:55:01.616Z,9.8
2023-04-12T07:56:01.232Z,9.8
2023-04-12T07:57:00.813Z,9.8
2023-04-12T07:58:01.398Z,9.9
2023-04-12T07:59:01.191Z,9.9
2023-04-12T08:00:01.616Z,9.8
2023-04-12T08:01:01.560Z,9.9
2023-04-12T08:02:00.893Z,9.9
2023-04-12T08:03:01.587Z,9.9
2023-04-12T08:04:01.484Z,10
2023-04-12T08:05:01.570Z,10.1
2023-04-12T08:06:01.223Z,10.1
2023-04-12T08:07:00.759Z,10.2
2023-04-12T08:08:01.319Z,10.1
2023-04-12T08:09:00.916Z,10
2023-04-12T08:10:01.514Z,9.9
2023-04-12T08:11:01.107Z,9.9
2023-04-12T08:12:01.738Z,9.9
2023-04-12T08:13:01.351Z,10
2023-04-12T08:14:01.018Z,10
2023-04-12T08:15:01.526Z,10
2023-04-12T08:16:01.150Z,10
2023-04-12T08:17:01.722Z,9.9
2023-04-12T08:18:01.339Z,9.8
2023-04-12T08:19:01.018Z,9.8
2023-04-12T08:20:01.528Z,9.8
2023-04-12T08:21:01.171Z,9.7
2023-04-12T08:22:00.818Z,9.6
2023-04-12T08:23:01.339Z,9.5
2023-04-12T08:24:00.947Z,9.5
2023-04-12T08:25:01.516Z,9.4
2023-04-12T08:26:01.106Z,9.4
2023-04-12T08:27:01.716Z,9.5
2023-04-12T08:28:01.342Z,9.4
2023-04-12T08:29:00.977Z,9.4
2023-04-12T08:30:01.538Z,9.3
2023-04-12T08:31:01.178Z,9.4
2023-04-12T08:32:00.721Z,9.4
2023-04-12T08:33:01.322Z,9.3
2023-04-12T08:34:00.970Z,9.3
2023-04-12T08:35:01.562Z,9.3
2023-04-12T08:36:01.194Z,9.3
2023-04-12T08:37:00.734Z,9.3
2023-04-12T08:38:01.341Z,9.3
2023-04-12T08:39:00.932Z,9.3
2023-04-12T08:40:01.523Z,9.4
2023-04-12T08:41:01.122Z,9.5
2023-04-12T08:42:00.703Z,9.6
2023-04-12T08:43:01.285Z,9.7
2023-04-12T08:44:00.869Z,9.7
2023-04-12T08:45:01.480Z,9.8
2023-04-12T08:46:01.112Z,9.8
2023-04-12T08:47:01.780Z,9.9
2023-04-12T08:48:01.484Z,9.9
2023-04-12T08:49:00.914Z,10.1
2023-04-12T08:50:01.533Z,10.2
2023-04-12T08:51:01.141Z,10.3
2023-04-12T08:52:00.711Z,10.4
2023-04-12T08:53:01.300Z,10.5
2023-04-12T08:54:01.095Z,10.5
2023-04-12T08:55:01.503Z,10.7
2023-04-12T08:56:01.096Z,10.7
2023-04-12T08:57:01.686Z,10.8
2023-04-12T08:58:01.284Z,10.9
2023-04-12T08:59:00.871Z,10.8
2023-04-12T09:00:01.483Z,10.8
2023-04-12T09:01:01.071Z,10.8
2023-04-12T09:02:01.703Z,10.8
2023-04-12T09:03:01.524Z,10.7
2023-04-12T09:04:01.213Z,10.7
2023-04-12T09:05:01.167Z,10.7
2023-04-12T09:06:00.851Z,10.7
2023-04-12T09:07:01.421Z,10.6
2023-04-12T09:08:01.020Z,10.4
2023-04-12T09:09:01.657Z,10.4
2023-04-12T09:10:01.292Z,10.2
2023-04-12T09:11:00.840Z,10.2
2023-04-12T09:12:01.430Z,10.1
2023-04-12T09:13:01.045Z,10.1
2023-04-12T09:14:01.822Z,10
2023-04-12T09:15:01.273Z,10
2023-04-12T09:16:00.866Z,10.1
2023-04-12T09:17:01.539Z,10
2023-04-12T09:18:01.127Z,10.2
2023-04-12T09:19:01.689Z,10.2
2023-04-12T09:20:01.323Z,10.3
2023-04-12T09:21:00.921Z,10.5
2023-04-12T09:22:01.497Z,10.7
2023-04-12T09:23:01.085Z,10.7
2023-04-12T09:24:01.688Z,10.7
2023-04-12T09:25:01.300Z,10.9
2023-04-12T09:26:00.930Z,10.9
2023-04-12T09:27:01.511Z,11.1
2023-04-12T09:28:01.107Z,11
2023-04-12T09:29:01.748Z,11.2
2023-04-12T09:30:01.353Z,11.2
2023-04-12T09:31:00.998Z,11.2
2023-04-12T09:32:01.591Z,11.2
2023-04-12T09:33:01.230Z,11
2023-04-12T09:34:00.780Z,10.9
2023-04-12T09:35:01.357Z,10.7
2023-04-12T09:36:00.994Z,10.5
2023-04-12T09:37:01.532Z,10.4
2023-04-12T09:38:01.143Z,10.6
2023-04-12T09:39:00.749Z,10.7
2023-04-12T09:40:01.359Z,10.6
2023-04-12T09:41:00.953Z,10.7
2023-04-12T09:42:01.579Z,10.7
2023-04-12T09:43:01.180Z,10.8
2023-04-12T09:44:01.030Z,11.1
2023-04-12T09:45:01.401Z,11.2
2023-04-12T09:46:01.040Z,11.4
2023-04-12T09:47:01.586Z,11.4
2023-04-12T09:48:01.180Z,11.6
2023-04-12T09:49:00.758Z,11.6
2023-04-12T09:50:01.335Z,11.8
2023-04-12T09:51:00.957Z,11.7
2023-04-12T09:52:01.521Z,11.8
2023-04-12T09:53:01.150Z,11.7
2023-04-12T09:54:01.705Z,11.7
2023-04-12T09:55:01.330Z,11.7
2023-04-12T09:56:00.982Z,11.8
2023-04-12T09:57:01.532Z,11.8
2023-04-12T09:58:01.200Z,11.8
2023-04-12T09:59:00.717Z,11.8
2023-04-12T10:00:01.321Z,11.8
2023-04-12T10:01:01.074Z,11.8
2023-04-12T10:02:01.554Z,11.6
2023-04-12T10:03:01.281Z,11.4
2023-04-12T10:04:00.974Z,11.4
2023-04-12T10:05:01.440Z,11.4
2023-04-12T10:06:01.019Z,11.5
2023-04-12T10:07:01.630Z,11.4
2023-04-12T10:08:01.216Z,11.5
2023-04-12T10:09:00.815Z,11.8
2023-04-12T10:10:01.384Z,12
2023-04-12T10:11:01.003Z,12.2
2023-04-12T10:12:01.593Z,12.2
2023-04-12T10:13:01.211Z,12.2
2023-04-12T10:14:00.822Z,12.7
2023-04-12T10:15:01.365Z,12.9
2023-04-12T10:16:01.034Z,13
2023-04-12T10:17:01.583Z,13
2023-04-12T10:18:01.224Z,12.9
2023-04-12T10:19:00.778Z,13.1
2023-04-12T10:20:01.435Z,12.9
2023-04-12T10:21:01.017Z,13
2023-04-12T10:22:01.589Z,12.9
2023-04-12T10:23:01.197Z,13.1
2023-04-12T10:24:00.752Z,13.1
2023-04-12T10:25:01.332Z,13.3
2023-04-12T10:26:00.919Z,13.4
2023-04-12T10:27:01.545Z,13.4
2023-04-12T10:28:01.155Z,13.4
2023-04-12T10:29:00.737Z,13.2
2023-04-12T10:30:01.341Z,13
2023-04-12T10:31:00.949Z,13
2023-04-12T10:32:01.582Z,13.1
2023-04-12T10:33:01.280Z,12.8
2023-04-12T10:34:00.770Z,12.9
2023-04-12T10:35:01.361Z,13
2023-04-12T10:36:01.134Z,12.8
2023-04-12T10:37:01.574Z,12.9
2023-04-12T10:38:01.188Z,13
2023-04-12T10:39:00.772Z,12.9
2023-04-12T10:40:01.349Z,13
2023-04-12T10:41:00.991Z,13.2
2023-04-12T10:42:01.557Z,12.8
2023-04-12T10:43:01.172Z,12.3
2023-04-12T10:44:00.748Z,12
2023-04-12T10:45:01.403Z,11.8
2023-04-12T10:46:01.011Z,11.7
2023-04-12T10:47:01.608Z,11.8
2023-04-12T10:48:01.256Z,11.9
2023-04-12T10:49:00.858Z,11.7
2023-04-12T10:50:01.391Z,11.4
2023-04-12T10:51:00.982Z,11.3
2023-04-12T10:52:01.564Z,11.1
2023-04-12T10:53:01.197Z,10.9
2023-04-12T10:54:00.779Z,10.8
2023-04-12T10:55:01.340Z,10.7
2023-04-12T10:56:00.963Z,10.6
2023-04-12T10:57:01.524Z,10.7
2023-04-12T10:58:01.217Z,10.9
2023-04-12T10:59:00.957Z,10.8
2023-04-12T11:00:01.321Z,10.9
2023-04-12T11:01:00.997Z,10.9
2023-04-12T11:02:01.759Z,11
2023-04-12T11:03:01.349Z,10.9
2023-04-12T11:04:01.061Z,10.9
2023-04-12T11:05:00.850Z,11
2023-04-12T11:06:09.592Z,10.9
2023-04-12T11:07:01.023Z,10.9
2023-04-12T11:08:01.633Z,10.8
2023-04-12T11:09:01.060Z,10.7
2023-04-12T11:10:01.393Z,10.8
2023-04-12T11:11:01.046Z,10.5
2023-04-12T11:12:01.599Z,10.5
2023-04-12T11:13:01.188Z,10.3
2023-04-12T11:14:00.803Z,10.2
2023-04-12T11:15:01.408Z,10.1
2023-04-12T11:16:01.066Z,10
2023-04-12T11:17:01.656Z,9.9
2023-04-12T11:18:01.359Z,9.8
2023-04-12T11:19:00.887Z,9.6
2023-04-12T11:20:01.491Z,9.6
2023-04-12T11:21:01.157Z,9.7
2023-04-12T11:22:01.709Z,9.8
2023-04-12T11:23:01.355Z,9.8
2023-04-12T11:24:00.911Z,9.8
2023-04-12T11:25:01.525Z,10
2023-04-12T11:26:01.163Z,10.2
2023-04-12T11:27:00.728Z,10.4
2023-04-12T11:28:01.328Z,10.4
2023-04-12T11:29:00.932Z,10.4
2023-04-12T11:30:01.595Z,10.6
2023-04-12T11:31:01.162Z,10.7
2023-04-12T11:32:00.820Z,10.8
2023-04-12T11:33:01.384Z,11.1
2023-04-12T11:34:01.050Z,11.1
2023-04-12T11:35:01.598Z,11.1
2023-04-12T11:36:01.188Z,11.3
2023-04-12T11:37:00.776Z,11.4
2023-04-12T11:38:01.352Z,11.7
2023-04-12T11:39:00.946Z,11.8
2023-04-12T11:40:01.547Z,11.9
2023-04-12T11:41:01.160Z,11.7
2023-04-12T11:42:00.734Z,11.4
2023-04-12T11:43:01.309Z,11.4
2023-04-12T11:44:00.937Z,11.2
2023-04-12T11:45:04.989Z,11.1
2023-04-12T11:46:01.119Z,11
2023-04-12T11:47:00.722Z,11
2023-04-12T11:48:01.324Z,10.9
2023-04-12T11:49:00.987Z,11
2023-04-12T11:50:01.603Z,10.9
2023-04-12T11:51:10.704Z,10.9
2023-04-12T11:52:00.753Z,10.9
2023-04-12T11:53:01.358Z,10.7
2023-04-12T11:54:00.962Z,10.5
2023-04-12T11:55:01.540Z,10.4
2023-04-12T11:56:01.131Z,10.3
2023-04-12T11:57:01.527Z,10.3
2023-04-12T11:58:01.273Z,10.2
2023-04-12T11:59:00.864Z,10
2023-04-12T12:00:01.481Z,9.9
2023-04-12T12:01:01.085Z,10
2023-04-12T12:02:06.323Z,10
2023-04-12T12:03:07.498Z,10
2023-04-12T12:04:01.150Z,10.1
2023-04-12T12:05:01.433Z,10.2
2023-04-12T12:06:01.559Z,10.2
2023-04-12T12:07:01.560Z,10.2
2023-04-12T12:08:01.444Z,10.3
2023-04-12T12:09:00.969Z,10.4
2023-04-12T12:10:01.535Z,10.5
2023-04-12T12:11:07.550Z,10.5
2023-04-12T12:12:01.717Z,10.8
2023-04-12T12:13:01.321Z,11
2023-04-12T12:14:01.014Z,11.1
2023-04-12T12:15:01.540Z,11.2
2023-04-12T12:16:01.187Z,11.1
2023-04-12T12:17:00.762Z,10.9
2023-04-12T12:18:01.463Z,11.2
2023-04-12T12:19:00.986Z,11.3
2023-04-12T12:20:01.592Z,11.5
2023-04-12T12:21:01.198Z,11.8
2023-04-12T12:22:00.851Z,12.2
2023-04-12T12:23:01.352Z,12.5
2023-04-12T12:24:01.233Z,12.7
2023-04-12T12:25:01.157Z,12.6
2023-04-12T12:26:14.721Z,12.6
2023-04-12T12:27:01.316Z,12.6
2023-04-12T12:28:01.042Z,12.6
2023-04-12T12:29:01.520Z,12.7
2023-04-12T12:30:01.110Z,12.6
2023-04-12T12:31:01.711Z,12.6
2023-04-12T12:32:01.301Z,12.4
2023-04-12T12:33:00.905Z,12.2
2023-04-12T12:34:02.652Z,12
2023-04-12T12:35:01.033Z,12.1
2023-04-12T12:36:01.650Z,12.2
2023-04-12T12:37:01.284Z,12.4
2023-04-12T12:38:00.932Z,12.3
2023-04-12T12:39:01.498Z,12.2
2023-04-12T12:40:01.120Z,12.2
2023-04-12T12:41:01.674Z,12.1
2023-04-12T12:42:01.284Z,12
2023-04-12T12:43:00.912Z,12.2
2023-04-12T12:44:01.512Z,12.3
2023-04-12T12:45:01.137Z,12.5
2023-04-12T12:46:01.690Z,12.4
2023-04-12T12:47:09.944Z,12.4
2023-04-12T12:48:00.909Z,12.6
2023-04-12T12:49:01.562Z,12.9
2023-04-12T12:50:01.177Z,12.6
2023-04-12T12:51:00.761Z,12.5
2023-04-12T12:52:01.326Z,12.8
2023-04-12T12:53:00.981Z,13.2
2023-04-12T12:54:01.595Z,13
2023-04-12T12:55:01.166Z,12.9
2023-04-12T12:56:00.774Z,12.8
2023-04-12T12:57:01.334Z,13
2023-04-12T12:59:01.474Z,12.7
2023-04-12T13:00:01.062Z,12.7
2023-04-12T13:01:01.666Z,12.4
2023-04-12T13:02:01.334Z,12.5
2023-04-12T13:03:01.269Z,12.8
2023-04-12T13:04:01.620Z,13.2
2023-04-12T13:05:01.187Z,13.4
2023-04-12T13:06:01.757Z,13.4
2023-04-12T13:07:01.370Z,13.4
2023-04-12T13:08:00.973Z,13.4
2023-04-12T13:09:01.751Z,13.4
2023-04-12T13:10:01.221Z,13.3
2023-04-12T13:11:00.779Z,13.2
2023-04-12T13:12:01.388Z,13
2023-04-12T13:13:01.032Z,13.3
2023-04-12T13:14:01.599Z,13.4
2023-04-12T13:15:13.236Z,13.7
2023-04-12T13:16:00.793Z,13.8
2023-04-12T13:17:01.357Z,13.6
2023-04-12T13:18:00.974Z,13.4
2023-04-12T13:19:01.554Z,13.1
2023-04-12T13:20:01.148Z,13.1
2023-04-12T13:21:00.730Z,13.2
2023-04-12T13:22:01.311Z,13
2023-04-12T13:23:00.966Z,12.9
2023-04-12T13:24:01.524Z,13
2023-04-12T13:25:01.139Z,13
2023-04-12T13:26:00.751Z,13.2
2023-04-12T13:27:01.300Z,13.1
2023-04-12T13:28:00.907Z,13
2023-04-12T13:29:01.629Z,13
2023-04-12T13:30:01.132Z,12.9
2023-04-12T13:31:00.714Z,13.1
2023-04-12T13:32:01.349Z,13.3
2023-04-12T13:33:00.986Z,13.2
2023-04-12T13:34:01.566Z,13.3
2023-04-12T13:35:01.152Z,13.3
2023-04-12T13:36:00.736Z,13.3
2023-04-12T13:37:01.332Z,13.3
2023-04-12T13:38:00.987Z,13.3
2023-04-12T13:39:01.590Z,13.3
2023-04-12T13:40:01.220Z,13.1
2023-04-12T13:41:00.760Z,13.1
2023-04-12T13:42:01.385Z,12.9
2023-04-12T13:43:00.975Z,13.1